Time;durP1;ratioP1;P1;durP2;ratioP2;P2;SDS_P1;SDS_P2;PMS_P1;PMS_P2;Temp;Humidity;BMP_temperature;BMP_pressure;BME280_temperature;BME280_humidity;BME280_pressure;Samples;Min_cycle;Max_cycle;Signal;HPM_P1;HPM_P2
2022/12/27 00:02:19;;;;;;;0.00;0.00;;;;;;;5.59;100.00;99693.94;4967449;28;20243;-58
2022/12/27 00:04:45;;;;;;;0.00;0.00;;;;;;;5.57;99.13;99693.19;4969263;28;20225;-57
2022/12/27 00:07:13;;;;;;;0.00;0.00;;;;;;;5.42;99.82;99690.59;4961814;28;20226;-58
2022/12/27 00:09:40;;;;;;;0.00;0.00;;;;;;;5.33;100.00;99685.94;4970048;28;20236;-59
2022/12/27 00:12:07;;;;;;;0.00;0.00;;;;;;;5.24;100.00;99696.88;4966223;28;20637;-59
2022/12/27 00:14:34;;;;;;;0.00;0.00;;;;;;;5.15;100.00;99693.91;4971350;28;20640;-58
2022/12/27 00:17:00;;;;;;;0.00;0.00;;;;;;;4.99;100.00;99693.94;4971295;28;20237;-59
2022/12/27 00:19:27;;;;;;;0.00;0.00;;;;;;;4.88;100.00;99710.09;4972258;28;20730;-59
2022/12/27 00:21:53;;;;;;;0.00;0.00;;;;;;;4.78;100.00;99701.19;4968076;28;20300;-58
2022/12/27 00:24:21;;;;;;;0.00;0.00;;;;;;;4.70;100.00;99701.63;4959640;28;20232;-59
2022/12/27 00:26:49;;;;;;;0.00;0.00;;;;;;;4.60;100.00;99705.66;4954318;28;20249;-58
2022/12/27 00:29:16;;;;;;;0.00;0.00;;;;;;;4.45;100.00;99704.75;4958574;28;20242;-58
2022/12/27 00:31:42;;;;;;;0.00;0.00;;;;;;;4.37;100.00;99710.34;4953548;28;20379;-60
2022/12/27 00:34:09;;;;;;;0.00;0.00;;;;;;;4.26;100.00;99708.34;4953931;28;20285;-59
2022/12/27 00:36:35;;;;;;;0.00;0.00;;;;;;;4.11;100.00;99709.19;4957331;28;20293;-58
2022/12/27 00:39:02;;;;;;;0.00;0.00;;;;;;;4.19;100.00;99712.19;4952819;28;20237;-59
2022/12/27 00:41:30;;;;;;;0.00;0.00;;;;;;;4.21;100.00;99718.13;4951741;28;20493;-59
2022/12/27 00:43:57;;;;;;;0.00;0.00;;;;;;;4.22;100.00;99717.19;4954369;28;20296;-60
2022/12/27 00:49:05;;;;;;;0.00;0.00;;;;;;;4.08;100.00;99723.09;5246855;23;20454;-62
2022/12/27 00:51:32;;;;;;;0.00;0.00;;;;;;;3.99;100.00;99732.19;4972878;28;20241;-62
2022/12/27 00:53:59;;;;;;;0.00;0.00;;;;;;;3.87;100.00;99737.13;4974999;28;20229;-62
2022/12/27 00:56:28;;;;;;;0.00;0.00;;;;;;;3.88;100.00;99723.31;4977968;28;20236;-62
2022/12/27 00:58:58;;;;;;;0.00;0.00;;;;;;;3.80;100.00;99726.31;4952759;28;20317;-62
2022/12/27 01:01:27;;;;;;;0.00;0.00;;;;;;;3.72;100.00;99723.28;4953807;28;20249;-62
2022/12/27 01:03:54;;;;;;;0.00;0.00;;;;;;;3.65;100.00;99718.44;4955994;28;20221;-62
2022/12/27 01:06:22;;;;;;;0.00;0.00;;;;;;;3.63;100.00;99716.88;4952469;28;20256;-62
2022/12/27 01:08:49;;;;;;;0.03;0.03;;;;;;;3.66;100.00;99719.28;4952460;28;20237;-62
2022/12/27 01:11:18;;;;;;;0.00;0.00;;;;;;;3.63;100.00;99722.03;4959837;28;20247;-62
2022/12/27 01:13:45;;;;;;;0.00;0.00;;;;;;;3.64;100.00;99726.28;4946865;28;20242;-62
2022/12/27 01:16:15;;;;;;;0.10;0.10;;;;;;;3.67;100.00;99723.53;4950351;28;20694;-62
2022/12/27 01:18:42;;;;;;;0.00;0.00;;;;;;;3.64;100.00;99732.25;4959011;28;20238;-62
2022/12/27 01:21:11;;;;;;;0.00;0.00;;;;;;;3.52;100.00;99733.75;4953631;28;20229;-62
2022/12/27 01:23:38;;;;;;;0.00;0.00;;;;;;;3.47;100.00;99740.03;4955876;28;20241;-62
2022/12/27 01:26:07;;;;;;;0.00;0.00;;;;;;;3.45;100.00;99741.84;4952000;28;20241;-62
2022/12/27 01:28:34;;;;;;;0.00;0.00;;;;;;;3.42;100.00;99744.59;4954487;28;20578;-62
2022/12/27 01:31:04;;;;;;;0.00;0.00;;;;;;;3.44;100.00;99750.50;4949874;28;20221;-62
2022/12/27 01:33:32;;;;;;;0.10;0.10;;;;;;;3.47;100.00;99748.63;4955230;28;20983;-62
2022/12/27 01:36:08;;;;;;;0.00;0.00;;;;;;;3.41;100.00;99746.34;4952285;28;20264;-62
2022/12/27 01:38:35;;;;;;;0.00;0.00;;;;;;;3.35;100.00;99762.97;4955207;28;20234;-62
2022/12/27 01:42:50;;;;;;;0.07;0.07;;;;;;;3.41;100.00;99759.25;4959439;28;20229;-62
2022/12/27 01:43:48;;;;;;;0.00;0.00;;;;;;;3.41;100.00;99759.25;4949807;28;20301;-63
2022/12/27 01:46:15;;;;;;;0.00;0.00;;;;;;;3.43;100.00;99761.75;4954860;28;20312;-62
2022/12/27 01:48:43;;;;;;;0.00;0.00;;;;;;;3.42;100.00;99762.66;4959282;28;20376;-62
2022/12/27 01:51:10;;;;;;;0.00;0.00;;;;;;;3.34;100.00;99766.47;4954058;28;20335;-62
2022/12/27 01:53:40;;;;;;;0.00;0.00;;;;;;;3.34;100.00;99765.63;4958706;28;20242;-62
2022/12/27 01:56:12;;;;;;;0.00;0.00;;;;;;;3.27;100.00;99777.19;4953194;28;20228;-62
2022/12/27 01:58:45;;;;;;;0.00;0.00;;;;;;;3.24;100.00;99778.16;4953823;28;20241;-62
2022/12/27 02:01:16;;;;;;;0.00;0.00;;;;;;;3.46;100.00;99782.25;4953927;28;20237;-62
2022/12/27 02:03:48;;;;;;;0.07;0.07;;;;;;;3.48;100.00;99780.44;4952824;28;20229;-62
2022/12/27 02:06:16;;;;;;;0.00;0.00;;;;;;;3.32;100.00;99783.75;4950751;28;20269;-62
2022/12/27 02:08:49;;;;;;;0.00;0.00;;;;;;;3.28;100.00;99792.56;4954320;28;20244;-62
2022/12/27 02:11:49;;;;;;;0.00;0.00;;;;;;;3.26;100.00;99789.22;4951651;28;20244;-62
2022/12/27 02:14:04;;;;;;;0.00;0.00;;;;;;;3.27;100.00;99800.41;4948060;28;23144;-62
2022/12/27 02:16:31;;;;;;;0.00;0.00;;;;;;;3.20;100.00;99797.25;4956367;28;20233;-62
2022/12/27 02:18:59;;;;;;;0.00;0.00;;;;;;;3.09;100.00;99798.66;4950990;28;20233;-62
2022/12/27 02:21:49;;;;;;;0.00;0.00;;;;;;;3.06;100.00;99790.22;4955289;28;20936;-62
2022/12/27 02:24:40;;;;;;;0.00;0.00;;;;;;;3.02;100.00;99794.69;4952439;28;20287;-62
2022/12/27 02:27:16;;;;;;;0.00;0.00;;;;;;;2.93;100.00;99793.38;4945779;28;20244;-62
2022/12/27 02:30:08;;;;;;;0.00;0.00;;;;;;;2.92;100.00;99801.19;4954758;28;20249;-62
2022/12/27 02:32:39;;;;;;;0.00;0.00;;;;;;;2.84;100.00;99788.66;4922707;28;20291;-62
2022/12/27 02:35:12;;;;;;;0.00;0.00;;;;;;;2.74;100.00;99789.97;4953055;28;20257;-62
2022/12/27 02:37:45;;;;;;;0.00;0.00;;;;;;;2.66;100.00;99792.94;4953420;28;20341;-62
2022/12/27 02:54:39;;;;;;;0.00;0.00;;;;;;;2.77;100.00;99798.44;4953252;28;20687;-62
2022/12/27 02:57:18;;;;;;;0.00;0.00;;;;;;;2.69;100.00;99797.09;4951111;28;20292;-62
2022/12/27 03:03:23;;;;;;;0.00;0.00;;;;;;;2.55;100.00;99801.19;4953480;28;20663;-62
2022/12/27 03:15:53;;;;;;;0.00;0.00;;;;;;;2.56;100.00;99795.13;4950011;28;20233;-62
2022/12/27 03:17:51;;;;;;;0.00;0.00;;;;;;;2.53;100.00;99805.56;4949374;28;20378;-62
2022/12/27 03:25:55;;;;;;;0.10;0.10;;;;;;;2.47;100.00;99805.84;4954044;28;20332;-62
2022/12/27 03:34:30;;;;;;;0.00;0.00;;;;;;;2.49;100.00;99804.84;4954916;28;20237;-62
2022/12/27 03:39:49;;;;;;;0.00;0.00;;;;;;;2.71;100.00;99806.44;4957260;28;20249;-62
2022/12/27 03:45:06;;;;;;;0.00;0.00;;;;;;;2.67;100.00;99810.06;4953623;28;20242;-62
2022/12/27 03:47:37;;;;;;;0.00;0.00;;;;;;;2.64;100.00;99816.22;4958479;28;20301;-62
2022/12/27 03:50:08;;;;;;;0.00;0.00;;;;;;;2.67;100.00;99817.81;4952280;28;20307;-62
2022/12/27 03:52:42;;;;;;;0.00;0.00;;;;;;;2.79;100.00;99818.97;4960618;28;20233;-62
2022/12/27 03:55:10;;;;;;;0.00;0.00;;;;;;;2.71;100.00;99819.34;4952947;28;20697;-62
2022/12/27 03:57:38;;;;;;;0.00;0.00;;;;;;;2.71;100.00;99819.34;4955874;28;20292;-62
2022/12/27 04:00:07;;;;;;;0.03;0.03;;;;;;;2.75;100.00;99820.88;4953249;28;20234;-62
2022/12/27 04:02:40;;;;;;;0.00;0.00;;;;;;;2.62;100.00;99812.88;4958653;28;20237;-62
2022/12/27 04:05:07;;;;;;;0.10;0.10;;;;;;;2.63;100.00;99809.41;4958302;28;20241;-62
2022/12/27 04:07:33;;;;;;;0.00;0.00;;;;;;;2.62;100.00;99806.88;4955709;28;20238;-62
2022/12/27 04:34:43;;;;;;;0.00;0.00;;;;;;;2.84;100.00;99805.88;4953388;28;20783;-60
2022/12/27 04:37:11;;;;;;;0.00;0.00;;;;;;;2.71;100.00;99806.44;4952654;28;20222;-59
2022/12/27 04:39:38;;;;;;;0.00;0.00;;;;;;;2.73;100.00;99814.94;4953522;28;20821;-59
2022/12/27 04:55:55;;;;;;;0.00;0.00;;;;;;;2.79;99.16;99809.50;4947949;28;20348;-60
2022/12/27 04:58:23;;;;;;;0.00;0.00;;;;;;;2.65;100.00;99804.16;4954929;28;20267;-58
2022/12/27 05:03:35;;;;;;;0.00;0.00;;;;;;;2.57;100.00;99803.66;4952795;28;20237;-59
2022/12/27 05:06:02;;;;;;;0.00;0.00;;;;;;;2.63;99.96;99799.09;4951291;28;20606;-58
2022/12/27 05:14:00;;;;;;;0.10;0.10;;;;;;;2.85;99.28;99804.97;4949591;28;20286;-60
2022/12/27 05:16:27;;;;;;;0.00;0.00;;;;;;;2.78;98.91;99809.56;4955015;28;20229;-60
2022/12/27 05:18:54;;;;;;;0.00;0.00;;;;;;;2.78;98.12;99799.25;4949303;28;20244;-60
2022/12/27 05:21:21;;;;;;;0.00;0.00;;;;;;;2.78;98.80;99805.25;4951880;28;20234;-59
2022/12/27 05:26:32;;;;;;;0.00;0.00;;;;;;;2.89;98.24;99816.81;4967034;28;20680;-58
2022/12/27 05:29:01;;;;;;;0.10;0.10;;;;;;;2.91;98.86;99817.56;4948956;28;20230;-58
2022/12/27 05:31:29;;;;;;;0.00;0.00;;;;;;;2.89;98.84;99816.81;4950905;28;20323;-59
2022/12/27 05:33:56;;;;;;;0.10;0.10;;;;;;;2.95;98.91;99822.50;4949469;28;20352;-59
2022/12/27 05:36:24;;;;;;;0.00;0.00;;;;;;;2.89;97.86;99821.97;4952125;28;20301;-59
2022/12/27 05:38:51;;;;;;;0.00;0.00;;;;;;;2.94;99.28;99828.56;4949521;28;20318;-60
2022/12/27 05:41:18;;;;;;;0.00;0.00;;;;;;;2.95;98.58;99824.25;4954553;28;20793;-60
2022/12/27 05:43:45;;;;;;;0.00;0.00;;;;;;;2.88;98.37;99826.28;4945378;28;20289;-60
2022/12/27 05:46:15;;;;;;;0.03;0.03;;;;;;;2.91;97.89;99826.13;4950157;28;20298;-58
2022/12/27 05:48:42;;;;;;;0.00;0.00;;;;;;;2.95;98.02;99830.25;4951706;28;20299;-59
2022/12/27 05:51:13;;;;;;;0.00;0.00;;;;;;;2.99;97.42;99830.09;4949825;28;20245;-59
2022/12/27 05:53:40;;;;;;;0.00;0.00;;;;;;;3.07;96.99;99835.72;4951220;28;20723;-59
2022/12/27 05:56:07;;;;;;;0.00;0.00;;;;;;;3.02;96.97;99837.69;4950958;28;20706;-59
2022/12/27 05:58:34;;;;;;;0.00;0.00;;;;;;;3.12;95.80;99841.50;4950291;28;20237;-60
2022/12/27 06:01:01;;;;;;;0.07;0.07;;;;;;;3.00;96.28;99840.38;4948371;28;20250;-59
2022/12/27 06:03:29;;;;;;;0.00;0.00;;;;;;;3.07;95.88;99841.75;4952409;28;20615;-59
2022/12/27 06:06:01;;;;;;;0.00;0.00;;;;;;;3.10;95.33;99845.91;4964280;28;20293;-59
2022/12/27 06:08:28;;;;;;;0.00;0.00;;;;;;;3.12;94.38;99840.69;4951392;28;20400;-64
2022/12/27 06:11:02;;;;;;;0.00;0.00;;;;;;;3.16;93.82;99835.28;4949598;28;20237;-59
2022/12/27 06:13:29;;;;;;;0.00;0.00;;;;;;;3.21;94.23;99838.50;4951643;28;20253;-60
2022/12/27 06:15:58;;;;;;;0.00;0.00;;;;;;;3.14;92.89;99844.03;4950650;28;20241;-59
2022/12/27 06:18:25;;;;;;;0.00;0.00;;;;;;;3.09;94.27;99834.75;4950529;28;20245;-61
2022/12/27 06:20:52;;;;;;;0.00;0.00;;;;;;;3.03;92.44;99829.03;4949417;28;20287;-59
2022/12/27 06:23:19;;;;;;;0.00;0.00;;;;;;;3.07;92.66;99835.72;4950682;28;20238;-60
2022/12/27 06:25:46;;;;;;;0.00;0.00;;;;;;;3.08;90.90;99837.41;4949721;28;21197;-59
2022/12/27 06:28:12;;;;;;;0.00;0.00;;;;;;;3.09;92.24;99837.34;4950972;28;20233;-60
2022/12/27 06:30:39;;;;;;;0.00;0.00;;;;;;;3.01;91.80;99836.88;4949075;28;20791;-59
2022/12/27 06:33:05;;;;;;;0.00;0.00;;;;;;;2.87;94.30;99841.84;4949124;28;20242;-59
2022/12/27 06:35:32;;;;;;;0.00;0.00;;;;;;;2.82;93.77;99848.94;4950267;28;20234;-59
2022/12/27 06:38:00;;;;;;;0.00;0.00;;;;;;;2.87;92.07;99852.16;4946830;28;20242;-58
2022/12/27 06:40:26;;;;;;;0.00;0.00;;;;;;;2.87;93.13;99854.72;4953444;28;20702;-59
2022/12/27 06:42:53;;;;;;;0.00;0.00;;;;;;;2.82;93.67;99847.19;4950337;28;20238;-58
2022/12/27 06:45:19;;;;;;;0.00;0.00;;;;;;;2.64;97.31;99854.91;4968335;28;20227;-59
2022/12/27 06:47:46;;;;;;;0.00;0.00;;;;;;;2.47;98.71;99852.25;4948503;28;20241;-59
2022/12/27 06:50:13;;;;;;;0.00;0.00;;;;;;;2.31;98.99;99849.47;4949900;28;20635;-60
2022/12/27 06:52:39;;;;;;;0.00;0.00;;;;;;;2.15;100.00;99849.34;4951456;28;20245;-59
2022/12/27 06:55:08;;;;;;;0.10;0.10;;;;;;;2.01;100.00;99849.94;4949286;28;20771;-59
2022/12/27 06:57:35;;;;;;;0.00;0.00;;;;;;;1.92;100.00;99857.16;4952023;28;20226;-59
2022/12/27 07:00:01;;;;;;;0.00;0.00;;;;;;;1.82;100.00;99863.59;4944681;28;20226;-60
2022/12/27 07:02:28;;;;;;;0.00;0.00;;;;;;;1.77;100.00;99855.22;4952414;28;20230;-61
2022/12/27 07:04:54;;;;;;;0.00;0.00;;;;;;;1.85;100.00;99858.31;4949532;28;20244;-60
2022/12/27 07:07:21;;;;;;;0.00;0.00;;;;;;;1.85;100.00;99858.31;4949058;28;20242;-60
2022/12/27 07:09:48;;;;;;;0.03;0.03;;;;;;;2.03;100.00;99861.84;4950144;28;20242;-59
2022/12/27 07:12:15;;;;;;;0.00;0.00;;;;;;;1.97;100.00;99863.84;4947265;28;20243;-59
2022/12/27 07:14:42;;;;;;;0.00;0.00;;;;;;;1.97;100.00;99871.56;4953950;28;20240;-59
2022/12/27 07:17:09;;;;;;;0.00;0.00;;;;;;;2.04;100.00;99870.41;4950289;28;20234;-58
2022/12/27 07:19:35;;;;;;;0.00;0.00;;;;;;;2.09;100.00;99883.94;4954126;28;20594;-60
2022/12/27 07:22:02;;;;;;;0.00;0.00;;;;;;;2.12;99.48;99883.78;4951448;28;20234;-60
2022/12/27 07:24:31;;;;;;;0.00;0.00;;;;;;;2.18;100.00;99888.66;4956543;28;20738;-59
2022/12/27 07:26:57;;;;;;;0.00;0.00;;;;;;;2.16;100.00;99887.06;4953622;28;20230;-58
2022/12/27 07:29:26;;;;;;;0.00;0.00;;;;;;;2.16;100.00;99887.88;4958176;28;20644;-60
2022/12/27 07:31:53;;;;;;;0.00;0.00;;;;;;;2.27;100.00;99887.44;4948790;28;20732;-59
2022/12/27 07:34:20;;;;;;;0.00;0.00;;;;;;;2.22;100.00;99886.81;4953219;28;20716;-59
2022/12/27 07:36:47;;;;;;;0.00;0.00;;;;;;;2.20;100.00;99889.44;4952844;28;20313;-58
2022/12/27 07:39:15;;;;;;;0.00;0.00;;;;;;;2.23;100.00;99888.47;4955425;28;20217;-58
2022/12/27 07:41:41;;;;;;;0.00;0.00;;;;;;;2.26;100.00;99893.50;4951222;28;20255;-59
2022/12/27 07:44:10;;;;;;;0.00;0.00;;;;;;;2.36;100.00;99893.94;4952844;28;20980;-59
2022/12/27 07:46:38;;;;;;;0.00;0.00;;;;;;;2.32;100.00;99894.97;4952626;28;20245;-60
2022/12/27 07:49:06;;;;;;;0.00;0.00;;;;;;;2.26;100.00;99897.81;4953593;28;20249;-59
2022/12/27 07:51:32;;;;;;;0.00;0.00;;;;;;;2.17;100.00;99902.44;4953387;28;20939;-60
2022/12/27 07:54:00;;;;;;;0.00;0.00;;;;;;;2.18;100.00;99898.97;4949587;28;20249;-59
2022/12/27 07:56:28;;;;;;;0.00;0.00;;;;;;;2.21;100.00;99891.09;4955742;28;20233;-60
2022/12/27 07:58:56;;;;;;;0.00;0.00;;;;;;;2.28;100.00;99903.72;4954221;28;20300;-58
2022/12/27 08:01:24;;;;;;;0.00;0.00;;;;;;;2.30;100.00;99892.47;4953399;28;20323;-59
2022/12/27 08:03:52;;;;;;;0.00;0.00;;;;;;;2.33;100.00;99892.34;4952937;28;20589;-58
2022/12/27 08:06:22;;;;;;;0.00;0.00;;;;;;;2.33;100.00;99896.63;4953477;28;20244;-60
2022/12/27 08:08:49;;;;;;;0.00;0.00;;;;;;;2.34;100.00;99888.84;4951351;28;20623;-57
2022/12/27 08:11:16;;;;;;;0.00;0.00;;;;;;;2.34;100.00;99899.16;4953564;28;20293;-59
2022/12/27 08:13:42;;;;;;;0.00;0.00;;;;;;;2.41;100.00;99896.31;4955550;28;20276;-60
2022/12/27 08:16:15;;;;;;;0.00;0.00;;;;;;;2.55;100.00;99891.41;4950260;28;20218;-59
2022/12/27 08:18:41;;;;;;;0.00;0.00;;;;;;;2.74;97.34;99883.66;4955527;28;20244;-60
2022/12/27 08:21:09;;;;;;;0.00;0.00;;;;;;;2.97;95.48;99883.50;4948650;28;20237;-60
2022/12/27 08:23:35;;;;;;;0.00;0.00;;;;;;;3.16;94.35;99886.06;4953611;28;20242;-56
2022/12/27 08:26:02;;;;;;;0.00;0.00;;;;;;;3.22;93.95;99889.19;4952000;28;20260;-59
2022/12/27 08:28:30;;;;;;;0.00;0.00;;;;;;;3.27;95.18;99895.88;4952457;28;20233;-58
2022/12/27 08:30:57;;;;;;;0.00;0.00;;;;;;;3.51;91.29;99886.13;4951080;28;20240;-59
2022/12/27 08:33:25;;;;;;;0.00;0.00;;;;;;;3.65;88.81;99894.03;4952139;28;20244;-58
2022/12/27 08:35:51;;;;;;;0.00;0.00;;;;;;;3.79;89.78;99884.78;4948153;28;20222;-59
2022/12/27 08:38:20;;;;;;;0.00;0.00;;;;;;;3.87;90.26;99892.97;4954274;28;20839;-59
2022/12/27 08:40:46;;;;;;;0.00;0.00;;;;;;;3.91;89.19;99893.63;4950487;28;20245;-59
2022/12/27 08:43:13;;;;;;;0.00;0.00;;;;;;;4.06;87.74;99892.06;4950882;28;20292;-58
2022/12/27 08:45:40;;;;;;;0.00;0.00;;;;;;;4.18;87.56;99895.75;4950844;28;20238;-61
2022/12/27 08:48:07;;;;;;;0.00;0.00;;;;;;;4.32;86.65;99906.22;4950622;28;20226;-60
2022/12/27 08:50:34;;;;;;;0.00;0.00;;;;;;;4.46;85.77;99904.66;4950351;28;20226;-63
2022/12/27 08:53:03;;;;;;;0.00;0.00;;;;;;;4.55;84.57;99910.19;4945579;28;20233;-60
2022/12/27 08:55:32;;;;;;;0.00;0.00;;;;;;;4.64;84.01;99920.97;4957990;28;20231;-59
2022/12/27 08:57:59;;;;;;;0.00;0.00;;;;;;;4.74;84.35;99924.75;4944007;28;20313;-59
2022/12/27 09:00:26;;;;;;;0.00;0.00;;;;;;;4.83;83.13;99923.41;4948363;28;20770;-58
2022/12/27 09:02:53;;;;;;;0.10;0.10;;;;;;;4.84;86.68;99923.34;4947549;28;20753;-58
2022/12/27 09:05:21;;;;;;;0.00;0.00;;;;;;;4.90;85.85;99926.50;4953598;28;20320;-58
2022/12/27 09:07:48;;;;;;;0.00;0.00;;;;;;;4.96;85.02;99931.34;4948226;28;20237;-58
2022/12/27 09:10:15;;;;;;;0.00;0.00;;;;;;;5.08;84.63;99940.19;4950716;28;20233;-57
2022/12/27 09:12:44;;;;;;;0.00;0.00;;;;;;;5.10;85.55;99943.53;4952926;28;20234;-57
2022/12/27 09:15:11;;;;;;;0.03;0.03;;;;;;;5.16;85.08;99933.69;4950542;28;20228;-56
2022/12/27 09:17:38;;;;;;;0.00;0.00;;;;;;;5.24;83.09;99935.03;4952962;28;20242;-57
2022/12/27 09:20:06;;;;;;;0.00;0.00;;;;;;;5.28;83.23;99939.94;4951232;28;20229;-57
2022/12/27 09:22:33;;;;;;;0.00;0.00;;;;;;;5.41;82.78;99947.03;4950062;28;20289;-58
2022/12/27 09:25:00;;;;;;;0.00;0.00;;;;;;;5.54;82.23;99952.38;4948877;28;20238;-58
2022/12/27 09:27:26;;;;;;;0.00;0.00;;;;;;;5.65;81.35;99952.59;4953727;28;20255;-58
2022/12/27 09:29:54;;;;;;;0.00;0.00;;;;;;;5.72;80.39;99953.09;4949329;28;20767;-57
2022/12/27 09:32:24;;;;;;;0.00;0.00;;;;;;;5.71;77.44;99952.25;4953820;28;20306;-58
2022/12/27 09:34:51;;;;;;;0.00;0.00;;;;;;;5.73;79.52;99955.59;4947354;28;20228;-57
2022/12/27 09:37:17;;;;;;;0.00;0.00;;;;;;;5.81;77.40;99949.16;4948713;28;20292;-57
2022/12/27 09:39:44;;;;;;;0.00;0.00;;;;;;;5.85;77.65;99959.25;4952311;28;20252;-57
2022/12/27 09:42:25;;;;;;;0.00;0.00;;;;;;;5.92;76.76;99959.75;4943113;28;20288;-58
2022/12/27 09:45:00;;;;;;;0.00;0.00;;;;;;;5.96;80.08;99966.41;4947367;28;21740;-57
2022/12/27 09:47:33;;;;;;;0.00;0.00;;;;;;;6.14;80.81;99961.94;4951218;28;20315;-59
2022/12/27 09:50:06;;;;;;;0.00;0.00;;;;;;;6.26;82.32;99963.00;4948205;28;20239;-61
2022/12/27 09:52:38;;;;;;;0.00;0.00;;;;;;;6.11;85.00;99974.25;4951819;28;20245;-57
2022/12/27 09:55:12;;;;;;;0.00;0.00;;;;;;;6.04;83.70;99974.63;4949984;28;20239;-58
2022/12/27 09:57:40;;;;;;;0.00;0.00;;;;;;;6.16;82.51;99970.47;4952214;28;20288;-58
2022/12/27 10:00:15;;;;;;;0.00;0.00;;;;;;;6.18;81.78;99960.84;4948527;28;20291;-58
2022/12/27 10:02:43;;;;;;;0.00;0.00;;;;;;;6.28;83.73;99955.13;4951276;28;20232;-57
2022/12/27 10:05:18;;;;;;;0.00;0.00;;;;;;;6.42;81.52;99956.88;4950672;28;20231;-58
2022/12/27 10:07:53;;;;;;;0.00;0.00;;;;;;;6.60;79.74;99954.97;4949233;28;20743;-59
2022/12/27 10:10:28;;;;;;;0.00;0.00;;;;;;;6.68;78.37;99952.75;4948629;28;20234;-59
2022/12/27 10:13:08;;;;;;;0.00;0.00;;;;;;;6.86;76.44;99950.78;4950491;28;20238;-59
2022/12/27 10:15:48;;;;;;;0.00;0.00;;;;;;;6.93;77.98;99951.22;4950082;28;20304;-58
2022/12/27 10:18:27;;;;;;;0.00;0.00;;;;;;;7.01;79.21;99943.81;4946859;28;20229;-58
2022/12/27 10:21:02;;;;;;;0.00;0.00;;;;;;;6.89;75.42;99942.81;4948724;28;20233;-57
2022/12/27 10:23:32;;;;;;;0.00;0.00;;;;;;;6.87;74.88;99959.41;4951207;28;20257;-58
2022/12/27 10:26:01;;;;;;;0.00;0.00;;;;;;;6.86;74.54;99955.16;4948433;28;20237;-57
2022/12/27 10:28:37;;;;;;;0.00;0.00;;;;;;;6.96;73.39;99948.44;4952364;28;20662;-59
2022/12/27 10:31:06;;;;;;;0.00;0.00;;;;;;;7.12;74.14;99934.50;4944650;28;20253;-58
2022/12/27 10:33:35;;;;;;;0.00;0.00;;;;;;;7.17;72.04;99928.13;4951230;28;20645;-58
2022/12/27 10:36:07;;;;;;;0.00;0.00;;;;;;;7.30;71.72;99930.75;4944273;28;20237;-58
2022/12/27 10:38:34;;;;;;;0.00;0.00;;;;;;;7.41;71.59;99927.50;4950673;28;20234;-58
2022/12/27 10:41:17;;;;;;;0.00;0.00;;;;;;;7.48;72.04;99930.50;4948091;28;20301;-59
2022/12/27 10:43:48;;;;;;;0.00;0.00;;;;;;;7.46;71.69;99924.59;4951052;28;20613;-58
2022/12/27 10:46:19;;;;;;;0.00;0.00;;;;;;;7.40;69.97;99925.81;4940066;28;20231;-58
2022/12/27 10:48:58;;;;;;;0.00;0.00;;;;;;;7.56;70.93;99932.59;4945074;28;20234;-58
2022/12/27 10:51:26;;;;;;;0.00;0.00;;;;;;;7.58;72.57;99923.78;4955423;28;20241;-58
2022/12/27 10:53:59;;;;;;;0.00;0.00;;;;;;;7.50;71.79;99926.06;4953852;28;20248;-57
2022/12/27 10:56:28;;;;;;;0.00;0.00;;;;;;;7.47;72.95;99927.06;4956390;28;20242;-59
2022/12/27 10:58:55;;;;;;;0.00;0.00;;;;;;;7.34;72.67;99934.81;4954028;28;20295;-59
2022/12/27 11:01:26;;;;;;;0.00;0.00;;;;;;;7.09;71.15;99919.97;4952807;28;20246;-58
2022/12/27 11:04:09;;;;;;;0.00;0.00;;;;;;;7.15;70.87;99929.97;4953072;28;20241;-58
2022/12/27 11:06:36;;;;;;;0.00;0.00;;;;;;;7.08;72.35;99926.91;4954099;28;20225;-58
2022/12/27 11:09:29;;;;;;;0.00;0.00;;;;;;;7.17;72.75;99927.25;4949415;28;20385;-59
2022/12/27 11:12:17;;;;;;;0.00;0.00;;;;;;;7.14;73.80;99920.50;4952474;28;20317;-58
2022/12/27 11:14:54;;;;;;;0.00;0.00;;;;;;;7.07;73.99;99917.44;4953583;28;20226;-57
2022/12/27 11:17:25;;;;;;;0.00;0.00;;;;;;;6.98;72.79;99925.00;4954153;28;20241;-58
2022/12/27 11:19:52;;;;;;;0.00;0.00;;;;;;;7.01;72.45;99920.44;4952582;28;20252;-59
2022/12/27 11:22:19;;;;;;;0.00;0.00;;;;;;;6.91;72.02;99921.94;4954650;28;20242;-57
2022/12/27 11:24:47;;;;;;;0.00;0.00;;;;;;;6.91;73.78;99920.19;4953145;28;20237;-59
2022/12/27 11:27:24;;;;;;;0.00;0.00;;;;;;;6.99;71.01;99918.88;4952782;28;20230;-57
2022/12/27 11:29:53;;;;;;;0.00;0.00;;;;;;;7.06;72.64;99915.78;4950357;28;20241;-57
2022/12/27 11:32:22;;;;;;;0.03;0.03;;;;;;;7.22;71.63;99912.22;4953958;28;20258;-58
2022/12/27 11:34:53;;;;;;;0.00;0.00;;;;;;;7.19;71.43;99907.22;4951287;28;20230;-59
2022/12/27 11:37:23;;;;;;;0.00;0.00;;;;;;;7.34;70.72;99895.84;4952583;28;20293;-58
2022/12/27 11:39:51;;;;;;;0.00;0.00;;;;;;;7.45;71.60;99897.75;4952767;28;20233;-57
2022/12/27 11:42:25;;;;;;;0.10;0.10;;;;;;;7.53;69.02;99898.09;4952544;28;20237;-58
2022/12/27 11:45:03;;;;;;;0.00;0.00;;;;;;;7.35;69.24;99894.13;4950355;28;20622;-59
2022/12/27 11:47:37;;;;;;;3.93;1.23;;;;;;;7.52;70.89;99898.22;4954009;28;20713;-58
2022/12/27 11:50:24;;;;;;;4.40;0.90;;;;;;;7.67;69.53;99899.81;4950522;28;20297;-59
2022/12/27 11:53:08;;;;;;;2.93;0.93;;;;;;;7.72;68.99;99890.88;4951306;28;20234;-59
2022/12/27 11:55:54;;;;;;;6.70;3.07;;;;;;;7.65;68.35;99890.44;4954533;28;20602;-59
2022/12/27 11:58:47;;;;;;;7.67;2.43;;;;;;;7.65;68.79;99885.22;4950111;28;20238;-58
2022/12/27 12:01:40;;;;;;;13.63;6.50;;;;;;;7.82;69.95;99887.56;4950491;28;20709;-58
2022/12/27 12:04:36;;;;;;;4.07;1.87;;;;;;;7.96;69.67;99883.22;4926894;28;20250;-60
2022/12/27 12:07:17;;;;;;;13.57;5.03;;;;;;;7.75;69.02;99890.69;4951244;28;20297;-58
2022/12/27 12:10:01;;;;;;;6.57;3.73;;;;;;;7.81;69.26;99890.28;4952987;28;20233;-59
2022/12/27 12:13:01;;;;;;;8.13;1.77;;;;;;;7.73;65.83;99893.34;4950706;28;20253;-58
2022/12/27 12:16:00;;;;;;;6.13;1.30;;;;;;;7.58;66.84;99902.16;4950923;28;20285;-59
2022/12/27 12:18:41;;;;;;;15.50;8.17;;;;;;;7.42;70.45;99910.13;4951371;28;20318;-59
2022/12/27 12:21:24;;;;;;;4.57;1.40;;;;;;;7.18;71.62;99911.59;4950352;28;20236;-58
2022/12/27 12:24:07;;;;;;;3.00;1.67;;;;;;;7.29;70.37;99899.69;4948837;28;20246;-59
2022/12/27 12:26:49;;;;;;;5.90;1.27;;;;;;;7.42;71.38;99900.56;4951036;28;20705;-58
2022/12/27 12:30:04;;;;;;;15.07;4.30;;;;;;;7.34;70.89;99889.84;4952012;28;20244;-59
2022/12/27 12:32:56;;;;;;;34.17;11.00;;;;;;;7.37;70.74;99894.84;4950236;28;20234;-59
2022/12/27 12:35:36;;;;;;;17.17;4.70;;;;;;;7.47;69.79;99895.06;4952537;28;20284;-58
2022/12/27 12:38:11;;;;;;;16.17;4.87;;;;;;;7.28;70.26;99885.88;4948766;28;20300;-58
2022/12/27 12:41:01;;;;;;;20.17;4.63;;;;;;;7.50;68.68;99889.69;4952512;28;20235;-59
2022/12/27 12:43:50;;;;;;;11.83;2.37;;;;;;;7.42;70.52;99882.38;4950013;28;20701;-59
2022/12/27 12:46:27;;;;;;;10.70;2.53;;;;;;;7.44;69.96;99877.91;4947871;28;20242;-57
2022/12/27 12:49:21;;;;;;;32.30;7.60;;;;;;;7.45;69.92;99889.97;4948725;28;20725;-59
2022/12/27 12:52:20;;;;;;;14.87;3.50;;;;;;;7.44;70.39;99893.50;4944011;28;20322;-59
2022/12/27 12:55:04;;;;;;;6.63;2.10;;;;;;;7.47;69.88;99900.28;4944251;28;21662;-59
2022/12/27 12:57:43;;;;;;;18.37;5.00;;;;;;;7.48;69.76;99881.16;4952087;28;20234;-60
2022/12/27 13:00:31;;;;;;;11.47;2.67;;;;;;;7.34;69.04;99882.88;4951466;28;20776;-58
2022/12/27 13:03:42;;;;;;;2.43;0.93;;;;;;;7.29;67.90;99879.75;4947553;28;20234;-57
2022/12/27 13:06:21;;;;;;;2.97;1.00;;;;;;;7.22;69.38;99878.47;4949431;28;20228;-58
2022/12/27 13:09:03;;;;;;;4.53;1.40;;;;;;;7.07;69.03;99881.09;4950782;28;20250;-58
2022/12/27 13:11:42;;;;;;;4.23;0.80;;;;;;;7.06;68.52;99876.03;4951891;28;20237;-59
2022/12/27 13:14:31;;;;;;;2.13;1.10;;;;;;;7.01;69.89;99871.09;4948613;28;20241;-57
2022/12/27 13:17:05;;;;;;;3.40;1.30;;;;;;;7.00;69.42;99873.81;4948472;28;20252;-59
2022/12/27 13:20:13;;;;;;;2.53;1.00;;;;;;;6.98;69.93;99862.69;4952599;28;20729;-58
2022/12/27 13:22:51;;;;;;;7.53;2.23;;;;;;;6.89;69.38;99859.75;4949753;28;20391;-59
2022/12/27 13:25:28;;;;;;;4.17;0.93;;;;;;;6.96;69.62;99864.56;4951640;28;20246;-59
2022/12/27 13:28:01;;;;;;;8.93;1.30;;;;;;;6.88;69.29;99859.84;4948303;28;20231;-58
2022/12/27 13:30:38;;;;;;;5.33;1.83;;;;;;;6.85;68.54;99855.69;4953393;28;20234;-58
2022/12/27 13:33:18;;;;;;;22.13;6.07;;;;;;;6.78;68.97;99860.44;4951582;28;22495;-59
2022/12/27 13:36:03;;;;;;;4.27;1.70;;;;;;;6.70;68.74;99860.06;4947846;28;20684;-58
2022/12/27 13:38:49;;;;;;;8.20;3.03;;;;;;;6.71;68.92;99860.91;4948188;28;20257;-59